Time;durP1;ratioP1;P1;durP2;ratioP2;P2;SDS_P1;SDS_P2;PMS_P1;PMS_P2;Temp;Humidity;BMP_temperature;BMP_pressure;BME280_temperature;BME280_humidity;BME280_pressure;Samples;Min_cycle;Max_cycle;Signal;HPM_P1;HPM_P2
2022/05/16 00:02:01;;;;;;;12.52;5.13;;;;;;;16.31;54.03;101338.84;4825489;29;20026;-75
2022/05/16 00:04:27;;;;;;;13.85;4.60;;;;;;;16.22;54.38;101330.00;4825242;29;20042;-76
2022/05/16 00:06:54;;;;;;;14.60;4.82;;;;;;;16.28;54.42;101344.31;4809059;29;20368;-75
2022/05/16 00:09:20;;;;;;;9.00;4.78;;;;;;;16.15;54.63;101320.19;4825140;29;20117;-75
2022/05/16 00:11:45;;;;;;;12.65;5.10;;;;;;;16.04;54.76;101311.44;4825131;29;20118;-75
2022/05/16 00:14:11;;;;;;;13.40;4.40;;;;;;;16.13;54.87;101324.69;4825093;29;20050;-76
2022/05/16 00:16:37;;;;;;;14.73;5.03;;;;;;;16.08;54.91;101321.59;4825058;29;20392;-75
2022/05/16 00:19:03;;;;;;;11.32;5.18;;;;;;;15.96;55.03;101310.38;4825163;29;20086;-77
2022/05/16 00:21:29;;;;;;;14.65;5.50;;;;;;;16.11;54.96;101332.59;4825076;29;20030;-76
2022/05/16 00:23:54;;;;;;;15.55;5.35;;;;;;;15.98;55.24;101313.69;4824854;29;20568;-76
2022/05/16 00:26:19;;;;;;;11.80;4.75;;;;;;;16.02;55.07;101315.09;4824930;29;20476;-75
2022/05/16 00:28:45;;;;;;;11.55;5.15;;;;;;;16.02;55.47;101312.47;4824785;29;20095;-77
2022/05/16 00:31:10;;;;;;;12.75;4.72;;;;;;;15.99;55.17;101312.72;4824874;29;20038;-75
2022/05/16 00:33:35;;;;;;;15.65;5.85;;;;;;;16.02;55.59;101317.69;4824841;29;20035;-77
2022/05/16 00:36:01;;;;;;;13.65;5.13;;;;;;;16.08;55.09;101317.22;4824797;29;20030;-76
2022/05/16 00:38:26;;;;;;;13.75;5.75;;;;;;;16.04;55.56;101315.81;4824792;29;20034;-75
2022/05/16 00:40:55;;;;;;;14.68;5.25;;;;;;;15.91;55.46;101289.03;4824582;29;20105;-75
2022/05/16 00:44:06;;;;;;;12.93;4.90;;;;;;;16.00;55.54;101320.41;4824675;29;20053;-75
2022/05/16 00:46:32;;;;;;;14.93;5.70;;;;;;;16.04;56.03;101321.03;4820671;29;20423;-75
2022/05/16 00:49:00;;;;;;;10.18;4.90;;;;;;;15.95;56.22;101308.72;4824586;29;20029;-75
2022/05/16 00:51:41;;;;;;;13.55;5.47;;;;;;;16.00;55.75;101314.38;4824493;29;20126;-75
2022/05/16 00:54:15;;;;;;;;;;;;;;;16.00;55.24;101319.59;4824899;29;20483;-75
2022/05/16 00:56:41;;;;;;;13.20;5.05;;;;;;;15.90;56.50;101300.41;4824679;29;19917;-76
2022/05/16 00:59:07;;;;;;;11.95;5.28;;;;;;;15.80;56.20;101292.47;4824323;29;20511;-76
2022/05/16 01:07:03;;;;;;;10.45;5.13;;;;;;;15.93;56.88;101302.81;4824693;29;20102;-75
2022/05/16 01:09:29;;;;;;;16.15;5.75;;;;;;;15.88;56.74;101310.13;4824352;29;20053;-75
2022/05/16 01:11:55;;;;;;;13.93;5.78;;;;;;;15.78;57.06;101299.59;4824287;29;20079;-75
2022/05/16 01:14:49;;;;;;;12.20;5.45;;;;;;;15.72;56.39;101284.44;4823913;29;20647;-75
2022/05/16 01:17:15;;;;;;;14.13;6.25;;;;;;;15.79;57.13;101301.25;4824285;29;20098;-76
2022/05/16 01:19:40;;;;;;;15.77;6.07;;;;;;;15.73;57.61;101299.09;4824403;29;20031;-76
2022/05/16 01:22:16;;;;;;;13.93;5.40;;;;;;;15.72;57.00;101294.84;4824154;29;20030;-76
2022/05/16 01:24:42;;;;;;;15.65;6.07;;;;;;;15.75;57.64;101305.06;4824075;29;20030;-75
2022/05/16 01:27:07;;;;;;;16.35;6.00;;;;;;;15.68;58.35;101302.06;4824022;29;20113;-76
2022/05/16 01:29:33;;;;;;;14.60;6.78;;;;;;;15.53;58.36;101278.94;4824034;29;20117;-75
2022/05/16 01:31:58;;;;;;;14.73;6.57;;;;;;;15.65;57.41;101302.31;4824106;29;20039;-79
2022/05/16 01:34:23;;;;;;;14.00;6.32;;;;;;;15.63;57.96;101299.00;4823952;29;20030;-76
2022/05/16 01:36:49;;;;;;;15.38;6.13;;;;;;;15.59;57.70;101296.72;4824052;29;20057;-76
2022/05/16 01:39:14;;;;;;;13.77;5.80;;;;;;;15.61;58.05;101298.28;4824011;29;20094;-79
2022/05/16 01:41:39;;;;;;;14.95;5.88;;;;;;;15.29;58.08;101255.63;4823867;29;20030;-77
2022/05/16 01:44:05;;;;;;;13.35;6.03;;;;;;;15.50;58.60;101291.25;4823644;29;20034;-75
2022/05/16 01:46:34;;;;;;;15.30;6.00;;;;;;;15.39;58.47;101273.03;4824047;29;20034;-75
2022/05/16 01:49:00;;;;;;;13.38;5.80;;;;;;;15.34;58.81;101274.31;4823799;29;20030;-75
2022/05/16 01:51:26;;;;;;;11.85;5.63;;;;;;;15.25;58.95;101264.63;4823792;29;20531;-74
2022/05/16 01:53:52;;;;;;;16.13;6.00;;;;;;;15.31;58.78;101282.38;4823846;29;20498;-74
2022/05/16 01:56:17;;;;;;;13.60;5.75;;;;;;;15.16;59.12;101268.75;4823400;29;20038;-75
2022/05/16 01:58:44;;;;;;;12.52;6.70;;;;;;;15.09;59.72;101260.56;4823284;29;20395;-74
2022/05/16 02:01:11;;;;;;;12.25;5.78;;;;;;;15.15;59.65;101280.94;4824040;29;20090;-76
2022/05/16 02:03:39;;;;;;;11.90;5.45;;;;;;;15.05;60.90;101279.13;4823814;29;20030;-76
2022/05/16 02:06:05;;;;;;;13.43;6.50;;;;;;;15.02;60.22;101280.16;4823691;29;20044;-73
2022/05/16 02:08:30;;;;;;;13.43;6.03;;;;;;;14.87;61.59;101271.75;4823633;29;20035;-74
2022/05/16 02:10:56;;;;;;;14.32;6.28;;;;;;;14.83;61.77;101274.66;4823425;29;20031;-74
2022/05/16 02:13:21;;;;;;;11.75;6.07;;;;;;;14.70;61.96;101253.97;4823110;29;20061;-74
2022/05/16 02:15:49;;;;;;;13.63;6.47;;;;;;;14.61;62.38;101259.81;4823588;29;20026;-76
2022/05/16 02:18:15;;;;;;;14.95;6.38;;;;;;;14.69;62.13;101261.88;4823497;29;20151;-74
2022/05/16 02:20:41;;;;;;;15.05;6.28;;;;;;;14.63;62.77;101268.34;4807214;29;20095;-73
2022/05/16 02:25:53;;;;;;;14.95;6.20;;;;;;;14.60;63.09;101273.75;4823262;29;20049;-74
2022/05/16 02:28:20;;;;;;;16.55;6.35;;;;;;;14.48;63.59;101270.28;4823577;29;20057;-75
2022/05/16 02:30:46;;;;;;;11.80;6.32;;;;;;;14.47;63.62;101258.25;4823512;29;20026;-75
2022/05/16 02:33:13;;;;;;;13.77;6.70;;;;;;;14.46;63.63;101256.59;4823440;29;20041;-74
2022/05/16 02:35:39;;;;;;;14.57;6.90;;;;;;;14.34;62.86;101228.84;4823404;29;20418;-74
2022/05/16 02:38:06;;;;;;;13.65;7.15;;;;;;;14.43;63.79;101254.16;4823237;29;20039;-75
2022/05/16 02:40:33;;;;;;;11.48;6.22;;;;;;;14.45;63.31;101241.06;4823143;29;20026;-75
2022/05/16 02:42:59;;;;;;;14.35;6.85;;;;;;;14.38;64.22;101243.28;4823095;29;20035;-75
2022/05/16 02:45:25;;;;;;;16.77;7.10;;;;;;;14.27;64.04;101231.06;4823148;29;20033;-74
2022/05/16 02:47:51;;;;;;;12.15;7.13;;;;;;;14.36;64.09;101247.75;4823131;29;20022;-74
2022/05/16 02:50:19;;;;;;;15.93;6.75;;;;;;;14.29;64.78;101244.78;4806656;29;20042;-75
2022/05/16 02:52:44;;;;;;;16.73;6.93;;;;;;;14.27;64.98;101238.03;4823225;29;20041;-75
2022/05/16 02:55:10;;;;;;;12.00;6.97;;;;;;;14.19;64.77;101228.19;4823101;29;20472;-74
2022/05/16 02:57:36;;;;;;;13.82;6.63;;;;;;;14.11;65.87;101227.06;4823273;29;20521;-74
2022/05/16 03:00:03;;;;;;;14.02;7.13;;;;;;;14.00;65.76;101209.66;4806568;29;20037;-75
2022/05/16 03:02:28;;;;;;;11.40;7.40;;;;;;;14.05;66.74;101225.72;4822972;29;20475;-73
2022/05/16 03:04:53;;;;;;;13.32;6.93;;;;;;;14.06;65.57;101222.22;4823014;29;20034;-76
2022/05/16 03:07:20;;;;;;;12.23;6.82;;;;;;;14.05;65.30;101223.97;4823003;29;20070;-74
2022/05/16 03:09:47;;;;;;;11.10;7.28;;;;;;;13.93;66.54;101213.63;4824638;29;20026;-75
2022/05/16 03:12:12;;;;;;;11.13;6.60;;;;;;;13.95;66.41;101222.94;4825911;29;20084;-74
2022/05/16 03:14:37;;;;;;;13.98;7.22;;;;;;;13.89;67.34;101215.63;4826134;29;20030;-74
2022/05/16 03:17:04;;;;;;;15.25;8.05;;;;;;;13.83;67.27;101207.41;4826185;29;20100;-75
2022/05/16 03:19:30;;;;;;;13.43;7.30;;;;;;;13.72;67.15;101196.03;4825787;29;20467;-77
2022/05/16 03:21:56;;;;;;;16.30;7.50;;;;;;;13.74;67.70;101195.91;4825915;29;20034;-76
2022/05/16 03:24:22;;;;;;;14.35;7.15;;;;;;;13.79;67.90;101212.00;4825906;29;20486;-77
2022/05/16 03:26:47;;;;;;;12.70;7.60;;;;;;;13.79;67.67;101209.41;4825742;29;20034;-75
2022/05/16 03:29:13;;;;;;;15.88;7.50;;;;;;;13.63;68.32;101204.47;4825793;29;20034;-76
2022/05/16 03:31:40;;;;;;;12.77;7.47;;;;;;;13.74;68.40;101224.47;4826000;29;20413;-76
2022/05/16 03:34:07;;;;;;;15.30;7.85;;;;;;;13.73;68.34;101217.63;4825782;29;20034;-76
2022/05/16 03:36:33;;;;;;;22.02;9.25;;;;;;;13.73;68.10;101215.03;4825744;29;20041;-75
2022/05/16 03:41:43;;;;;;;15.77;8.48;;;;;;;13.53;69.81;101202.59;4825986;29;20042;-75
2022/05/16 03:44:08;;;;;;;14.40;8.75;;;;;;;13.47;69.87;101196.09;4825375;29;20034;-75
2022/05/16 03:46:33;;;;;;;15.70;8.52;;;;;;;13.58;70.26;101216.13;4825730;29;20038;-76
2022/05/16 03:48:59;;;;;;;14.43;7.70;;;;;;;13.51;70.08;101194.13;4825682;29;20393;-76
2022/05/16 03:51:24;;;;;;;14.18;7.93;;;;;;;13.52;69.90;101206.16;4825691;29;20105;-76
2022/05/16 03:53:50;;;;;;;16.60;8.73;;;;;;;13.64;69.47;101216.50;4809454;29;20026;-76
2022/05/16 03:56:19;;;;;;;15.95;8.95;;;;;;;13.64;69.78;101210.47;4825510;29;20038;-75
2022/05/16 03:58:44;;;;;;;14.95;8.95;;;;;;;13.62;70.40;101215.78;4825496;29;20067;-88
2022/05/16 04:01:11;;;;;;;14.18;8.95;;;;;;;13.67;69.98;101211.13;4825305;29;20026;-76
2022/05/16 04:03:37;;;;;;;13.90;8.25;;;;;;;13.69;70.58;101214.41;4825282;29;20043;-76
2022/05/16 04:06:03;;;;;;;15.93;8.48;;;;;;;13.62;70.78;101213.19;4825314;29;20071;-77
2022/05/16 04:08:28;;;;;;;15.60;8.75;;;;;;;13.68;70.19;101209.34;4825227;29;20123;-76
2022/05/16 04:10:55;;;;;;;18.92;9.00;;;;;;;13.71;69.24;101196.16;4825041;29;20026;-75
2022/05/16 04:13:20;;;;;;;14.23;9.07;;;;;;;13.87;69.31;101207.13;4825033;29;20499;-76
2022/05/16 04:15:46;;;;;;;13.30;8.82;;;;;;;13.87;69.81;101209.72;4824786;29;20130;-76
2022/05/16 04:18:11;;;;;;;15.15;9.60;;;;;;;13.92;70.78;101212.78;4825214;29;20095;-75
2022/05/16 04:20:39;;;;;;;14.88;8.60;;;;;;;13.98;70.46;101214.97;4824875;29;20030;-75
2022/05/16 04:23:07;;;;;;;15.88;9.50;;;;;;;14.06;70.19;101211.84;4825029;29;20022;-76
2022/05/16 04:25:33;;;;;;;15.15;8.90;;;;;;;14.17;69.44;101216.25;4825028;29;20030;-77
2022/05/16 04:27:58;;;;;;;14.73;9.32;;;;;;;14.18;68.79;101197.13;4825078;29;20045;-76
2022/05/16 04:30:24;;;;;;;16.55;9.05;;;;;;;14.38;68.68;101219.06;4824951;29;20030;-76
2022/05/16 04:32:49;;;;;;;13.80;9.07;;;;;;;14.50;68.25;101228.59;4825141;29;20034;-76
2022/05/16 04:35:14;;;;;;;16.95;9.43;;;;;;;14.57;68.01;101222.84;4808701;29;20142;-76
2022/05/16 04:37:40;;;;;;;14.05;8.20;;;;;;;14.60;67.46;101201.00;4824873;29;20050;-76
2022/05/16 04:40:07;;;;;;;14.52;8.48;;;;;;;14.80;67.33;101218.53;4824893;29;20026;-75
2022/05/16 04:42:42;;;;;;;20.88;8.32;;;;;;;14.95;66.17;101218.34;4824711;29;20026;-75
2022/05/16 04:45:19;;;;;;;15.63;8.57;;;;;;;14.93;65.85;101197.63;4824441;29;20042;-79
2022/05/16 04:47:48;;;;;;;16.83;8.90;;;;;;;15.10;66.74;101211.97;4824827;29;20038;-78
2022/05/16 04:50:15;;;;;;;19.65;9.35;;;;;;;15.16;65.55;101204.53;4824793;29;20032;-76
2022/05/16 04:52:41;;;;;;;16.70;9.27;;;;;;;15.42;64.63;101225.13;4824769;29;20094;-77
2022/05/16 04:55:07;;;;;;;15.57;9.55;;;;;;;15.50;64.86;101223.59;4824655;29;20038;-83
2022/05/16 04:57:33;;;;;;;17.95;9.65;;;;;;;15.64;65.20;101227.78;4824555;29;20391;-76
2022/05/16 04:59:58;;;;;;;22.80;9.40;;;;;;;15.79;64.01;101238.75;4824541;29;20109;-76
2022/05/16 05:02:24;;;;;;;16.08;9.05;;;;;;;16.15;63.88;101235.03;4824560;29;20479;-76
2022/05/16 05:04:49;;;;;;;17.05;9.20;;;;;;;16.90;61.80;101231.53;4824581;29;20038;-76
2022/05/16 05:07:15;;;;;;;19.10;9.45;;;;;;;18.20;58.21;101225.59;4824454;29;20027;-78
2022/05/16 05:15:14;;;;;;;18.90;8.73;;;;;;;21.12;49.03;101220.44;4824483;29;20073;-84
2022/05/16 05:17:41;;;;;;;14.73;8.55;;;;;;;21.88;47.08;101227.53;4824182;29;20071;-80
2022/05/16 05:20:13;;;;;;;17.05;7.93;;;;;;;23.07;44.47;101212.13;4824212;29;20033;-82
2022/05/16 05:22:43;;;;;;;19.60;8.23;;;;;;;24.12;42.52;101196.81;4824170;29;20151;-78
2022/05/16 05:25:11;;;;;;;25.67;8.88;;;;;;;24.96;40.26;101167.69;4824123;29;20544;-77
2022/05/16 05:27:38;;;;;;;14.38;8.27;;;;;;;25.49;37.95;101192.22;4824091;29;20043;-77
2022/05/16 05:30:05;;;;;;;17.17;7.80;;;;;;;25.70;37.20;101211.59;4823886;29;20027;-76
2022/05/16 05:32:30;;;;;;;17.00;6.88;;;;;;;25.70;38.29;101222.19;4823424;29;20038;-91
2022/05/16 05:34:55;;;;;;;19.05;8.90;;;;;;;25.20;39.11;101230.88;4823922;29;20109;-92
2022/05/16 05:37:21;;;;;;;13.30;7.97;;;;;;;24.44;39.48;101229.28;4824044;29;20058;-92
2022/05/16 05:39:46;;;;;;;13.50;8.40;;;;;;;23.58;41.33;101222.31;4824203;29;20061;-88
2022/05/16 05:42:11;;;;;;;17.90;8.60;;;;;;;22.68;44.05;101219.91;4823875;29;20105;-91
2022/05/16 05:44:37;;;;;;;10.75;8.75;;;;;;;22.10;45.09;101225.31;4823960;29;20039;-88
2022/05/16 05:47:02;;;;;;;16.38;8.63;;;;;;;21.65;46.15;101223.84;4823829;29;20030;-77
2022/05/16 05:49:27;;;;;;;13.38;8.30;;;;;;;21.29;47.82;101210.88;4823920;29;20072;-79
2022/05/16 05:51:53;;;;;;;15.77;9.48;;;;;;;21.36;47.04;101232.13;4823845;29;20141;-79
2022/05/16 05:54:18;;;;;;;14.35;9.82;;;;;;;21.32;48.07;101218.44;4823981;29;20030;-80
2022/05/16 05:56:44;;;;;;;15.80;9.75;;;;;;;22.55;45.61;101193.28;4824515;29;20038;-91
2022/05/16 05:59:09;;;;;;;16.00;9.25;;;;;;;23.54;43.05;101245.59;4824194;29;20030;-78
2022/05/16 06:01:34;;;;;;;16.63;8.95;;;;;;;23.09;43.43;101219.84;4827946;29;20109;-75
2022/05/16 06:04:00;;;;;;;16.65;9.10;;;;;;;22.57;43.95;101252.66;4842195;29;20059;-76
2022/05/16 06:06:26;;;;;;;18.85;8.63;;;;;;;22.04;46.08;101232.84;4842151;29;20387;-75
2022/05/16 06:08:51;;;;;;;10.80;7.10;;;;;;;21.59;46.91;101245.50;4841904;29;20030;-78
2022/05/16 06:11:17;;;;;;;14.07;7.10;;;;;;;21.11;47.36;101233.75;4841760;29;20466;-76
2022/05/16 06:13:43;;;;;;;24.02;7.60;;;;;;;20.85;48.90;101252.13;4841733;29;20456;-75
2022/05/16 06:16:09;;;;;;;15.55;7.60;;;;;;;20.48;49.27;101232.16;4841695;29;20033;-80
2022/05/16 06:18:35;;;;;;;14.20;7.28;;;;;;;20.68;49.68;101261.66;4842041;29;20048;-76
2022/05/16 06:21:00;;;;;;;15.15;7.70;;;;;;;21.23;47.95;101258.75;4842025;29;20047;-77
2022/05/16 06:23:26;;;;;;;12.98;7.30;;;;;;;21.60;47.32;101260.28;4842590;29;20399;-76
2022/05/16 06:25:52;;;;;;;15.98;7.63;;;;;;;21.89;47.01;101223.91;4842247;29;20158;-76
2022/05/16 06:28:21;;;;;;;12.27;7.05;;;;;;;22.66;45.46;101269.28;4841708;29;20061;-75
2022/05/16 06:30:51;;;;;;;15.45;7.03;;;;;;;22.74;45.38;101268.47;4841771;29;20121;-75
2022/05/16 06:33:19;;;;;;;13.00;7.97;;;;;;;22.59;45.15;101266.47;4841694;29;20030;-76
2022/05/16 06:35:44;;;;;;;13.27;7.70;;;;;;;22.45;45.96;101267.13;4841491;29;20057;-75
2022/05/16 06:38:12;;;;;;;14.23;7.85;;;;;;;22.73;44.45;101237.84;4841495;29;20061;-76
2022/05/16 06:40:40;;;;;;;14.23;8.00;;;;;;;23.82;43.35;101268.91;4841598;29;20068;-77
2022/05/16 06:43:06;;;;;;;12.77;7.03;;;;;;;25.05;41.11;101253.84;4842530;29;20042;-77
2022/05/16 06:45:32;;;;;;;11.30;6.50;;;;;;;26.44;38.69;101263.47;4845195;29;20022;-77
2022/05/16 06:47:57;;;;;;;13.77;6.97;;;;;;;27.62;35.69;101255.50;4828387;29;20367;-76
2022/05/16 06:50:23;;;;;;;10.40;6.72;;;;;;;28.12;34.70;101248.16;4844879;29;20037;-76
2022/05/16 06:52:49;;;;;;;11.38;6.25;;;;;;;28.60;33.89;101271.09;4844982;29;20026;-77
2022/05/16 06:55:15;;;;;;;13.25;6.50;;;;;;;28.66;33.79;101247.19;4845275;29;20038;-75
2022/05/16 06:57:41;;;;;;;11.93;5.63;;;;;;;27.81;34.49;101272.56;4844969;29;20026;-75
2022/05/16 07:00:08;;;;;;;11.38;5.95;;;;;;;26.51;36.86;101282.91;4845024;29;20030;-78
2022/05/16 07:02:33;;;;;;;12.27;5.65;;;;;;;25.52;39.12;101265.88;4844711;29;20086;-76
2022/05/16 07:05:00;;;;;;;12.38;5.88;;;;;;;25.02;40.55;101288.56;4844519;29;20108;-76
2022/05/16 07:07:26;;;;;;;13.80;5.65;;;;;;;24.55;41.57;101284.28;4844592;29;20030;-74
2022/05/16 07:09:51;;;;;;;14.25;6.53;;;;;;;24.19;42.90;101295.41;4844653;29;20535;-74
2022/05/16 07:12:16;;;;;;;12.20;5.57;;;;;;;23.79;43.84;101295.59;4844908;29;20073;-74
2022/05/16 07:14:42;;;;;;;15.18;5.63;;;;;;;23.44;43.96;101295.03;4844717;29;20108;-75
2022/05/16 07:17:07;;;;;;;14.13;6.20;;;;;;;23.15;45.44;101274.53;4844619;29;20034;-75
2022/05/16 07:19:35;;;;;;;14.93;5.97;;;;;;;23.12;45.54;101288.88;4844355;29;20040;-75
2022/05/16 07:22:10;;;;;;;12.07;5.90;;;;;;;23.09;45.85;101312.88;4844506;29;20040;-76
2022/05/16 07:24:35;;;;;;;12.80;5.93;;;;;;;22.82;45.95;101289.53;4844515;29;20026;-79
2022/05/16 07:29:44;;;;;;;16.20;6.18;;;;;;;22.65;46.83;101288.69;4844751;29;20134;-76
2022/05/16 07:32:11;;;;;;;13.77;6.07;;;;;;;22.78;46.88;101301.34;4844276;29;20034;-79
2022/05/16 07:34:38;;;;;;;11.18;5.07;;;;;;;22.74;47.28;101308.78;4844121;29;20045;-83
2022/05/16 07:37:03;;;;;;;14.88;6.03;;;;;;;22.65;47.56;101312.38;4844114;29;20121;-83
2022/05/16 07:39:29;;;;;;;15.60;5.55;;;;;;;22.43;47.36;101278.81;4844112;29;20109;-75
2022/05/16 07:41:54;;;;;;;8.80;5.38;;;;;;;22.48;47.91;101308.91;4844093;29;20065;-75
2022/05/16 07:44:20;;;;;;;12.85;5.32;;;;;;;22.45;47.97;101311.06;4844064;29;20030;-76
2022/05/16 07:46:45;;;;;;;14.18;5.70;;;;;;;22.32;48.61;101301.81;4844038;29;20037;-77
2022/05/16 07:49:13;;;;;;;13.18;5.65;;;;;;;22.23;48.42;101284.38;4844224;29;20026;-82
2022/05/16 07:51:40;;;;;;;15.10;5.22;;;;;;;22.49;48.88;101305.28;4827311;29;20114;-76
2022/05/16 07:54:05;;;;;;;8.80;5.53;;;;;;;22.57;49.35;101313.19;4844005;29;20179;-76
2022/05/16 07:56:32;;;;;;;12.90;5.40;;;;;;;22.66;48.57;101313.22;4843663;29;20101;-76
2022/05/16 07:58:57;;;;;;;9.00;5.13;;;;;;;22.55;48.35;101282.75;4844104;29;20053;-75
2022/05/16 08:01:22;;;;;;;11.50;5.40;;;;;;;22.76;48.90;101306.78;4826940;29;20482;-76
2022/05/16 08:03:48;;;;;;;11.02;5.18;;;;;;;22.55;50.09;101278.31;4843804;29;20033;-87
2022/05/16 08:06:13;;;;;;;11.43;5.13;;;;;;;22.82;49.31;101315.84;4843653;29;20034;-76
2022/05/16 08:11:22;;;;;;;10.38;5.13;;;;;;;22.90;49.02;101329.03;4843892;29;20044;-76
2022/05/16 08:13:48;;;;;;;13.20;4.90;;;;;;;22.86;49.20;101333.81;4843581;29;20045;-76
2022/05/16 08:16:13;;;;;;;10.88;4.68;;;;;;;22.71;49.50;101303.81;4827101;29;20034;-76
2022/05/16 08:18:40;;;;;;;10.98;4.60;;;;;;;22.73;49.69;101306.31;4843256;29;20033;-76
2022/05/16 08:21:05;;;;;;;10.23;4.53;;;;;;;22.75;49.57;101313.06;4843149;29;20029;-77
2022/05/16 08:23:31;;;;;;;10.80;4.43;;;;;;;22.97;51.91;101324.75;4843376;29;20030;-74
2022/05/16 08:26:01;;;;;;;10.48;4.65;;;;;;;23.12;51.07;101307.31;4843432;29;20281;-76
2022/05/16 08:28:26;;;;;;;10.57;4.50;;;;;;;23.55;50.16;101328.13;4843446;29;20026;-77
2022/05/16 08:30:52;;;;;;;13.82;4.60;;;;;;;23.48;49.94;101288.44;4843234;29;20380;-76
2022/05/16 08:33:17;;;;;;;8.82;4.13;;;;;;;23.64;49.68;101327.16;4843231;29;20030;-76
2022/05/16 08:35:43;;;;;;;11.70;4.05;;;;;;;23.33;49.49;101298.88;4843063;29;20033;-77
2022/05/16 08:41:06;;;;;;;8.80;3.70;;;;;;;23.60;51.73;101324.03;4843211;29;20130;-75
2022/05/16 08:43:57;;;;;;;7.90;3.80;;;;;;;23.72;50.77;101333.22;4843025;29;20025;-75
2022/05/16 08:46:34;;;;;;;9.20;3.80;;;;;;;23.81;49.87;101334.00;4833552;29;20042;-73
2022/05/16 08:49:29;;;;;;;8.50;3.45;;;;;;;23.68;50.00;101302.06;4824594;29;20034;-78
2022/05/16 08:52:07;;;;;;;8.60;3.95;;;;;;;23.77;49.58;101310.78;4824647;29;20113;-76
2022/05/16 08:54:37;;;;;;;7.53;3.40;;;;;;;24.03;49.70;101335.06;4824655;29;20083;-79
2022/05/16 08:57:06;;;;;;;8.32;3.85;;;;;;;24.06;50.05;101336.53;4824587;29;20109;-78
2022/05/16 08:59:36;;;;;;;9.00;3.53;;;;;;;24.06;49.10;101328.63;4824787;29;20034;-77
2022/05/16 09:02:08;;;;;;;6.68;3.20;;;;;;;24.09;49.49;101331.75;4824527;29;20031;-77
2022/05/16 09:05:08;;;;;;;8.43;3.15;;;;;;;24.25;49.61;101336.09;4807984;29;20038;-79
2022/05/16 09:07:45;;;;;;;7.35;2.83;;;;;;;24.30;48.79;101331.97;4823754;29;20434;-79
2022/05/16 09:10:18;;;;;;;11.38;3.58;;;;;;;24.43;48.18;101326.13;4824514;29;20113;-79
2022/05/16 09:12:49;;;;;;;8.27;3.10;;;;;;;24.55;47.29;101321.25;4824231;29;20069;-77
2022/05/16 09:15:27;;;;;;;7.97;3.30;;;;;;;24.80;48.57;101328.00;4824912;29;20159;-77
2022/05/16 09:18:07;;;;;;;8.10;2.92;;;;;;;24.83;47.44;101319.72;4824784;29;20042;-76
2022/05/16 09:20:48;;;;;;;10.03;3.50;;;;;;;24.87;46.22;101328.09;4825013;29;20384;-81
2022/05/16 09:23:31;;;;;;;7.78;3.20;;;;;;;24.74;46.68;101283.81;4824819;29;20645;-81
2022/05/16 09:26:04;;;;;;;10.40;3.15;;;;;;;24.82;45.88;101304.06;4824225;29;20087;-77
2022/05/16 09:28:34;;;;;;;8.27;2.92;;;;;;;24.88;46.78;101295.44;4824251;29;20467;-73
2022/05/16 09:31:14;;;;;;;6.53;2.80;;;;;;;25.01;45.85;101321.22;4824493;29;20022;-82
2022/05/16 09:33:48;;;;;;;6.95;2.97;;;;;;;24.92;46.61;101307.28;4824081;29;20059;-78
2022/05/16 09:36:18;;;;;;;8.93;2.72;;;;;;;25.09;46.34;101321.19;4824226;29;20030;-77
2022/05/16 09:38:46;;;;;;;7.78;2.40;;;;;;;25.26;43.58;101327.13;4824105;29;20030;-76
2022/05/16 09:41:20;;;;;;;12.93;3.10;;;;;;;25.21;44.99;101309.19;4824227;29;20022;-76
2022/05/16 09:43:54;;;;;;;10.30;2.75;;;;;;;25.43;45.09;101320.66;4824324;29;20124;-77
2022/05/16 09:46:35;;;;;;;10.10;3.40;;;;;;;25.55;45.25;101329.78;4824257;29;20059;-75
2022/05/16 09:49:27;;;;;;;8.32;2.97;;;;;;;25.55;45.27;101308.63;4823790;29;20459;-78
2022/05/16 09:51:55;;;;;;;8.68;2.92;;;;;;;25.88;44.45;101338.22;4749990;30;20649;-76
2022/05/16 09:54:27;;;;;;;9.82;3.00;;;;;;;25.90;44.24;101343.31;4749980;30;20048;-76
2022/05/16 09:57:16;;;;;;;7.28;3.47;;;;;;;26.03;44.73;101346.94;4749980;30;20071;-77
2022/05/16 10:00:16;;;;;;;6.95;2.88;;;;;;;26.12;44.07;101357.41;4749864;30;20032;-72
2022/05/16 10:02:42;;;;;;;10.75;3.38;;;;;;;26.24;44.40;101361.22;4697315;30;20124;-75
2022/05/16 10:05:19;;;;;;;7.20;3.38;;;;;;;26.41;43.83;101361.84;4697160;30;20542;-76
2022/05/16 10:07:48;;;;;;;7.82;3.35;;;;;;;26.53;43.91;101363.81;4697324;30;20103;-76
2022/05/16 10:10:17;;;;;;;7.93;3.40;;;;;;;26.46;43.97;101376.19;4697337;30;20041;-77
2022/05/16 10:12:43;;;;;;;8.85;3.15;;;;;;;26.28;43.10;101346.63;4697311;30;20045;-75
2022/05/16 10:15:09;;;;;;;5.47;3.35;;;;;;;26.63;41.85;101373.28;4697434;30;20045;-76
2022/05/16 10:17:37;;;;;;;7.68;3.30;;;;;;;26.97;42.52;101383.19;4697675;30;20111;-75
2022/05/16 10:20:20;;;;;;;9.38;3.53;;;;;;;27.29;41.63;101355.31;4700601;30;20037;-77
2022/05/16 10:22:46;;;;;;;7.85;3.53;;;;;;;27.33;41.24;101361.88;4700534;30;20073;-75
2022/05/16 10:25:19;;;;;;;11.48;4.03;;;;;;;27.41;40.43;101388.25;4700672;30;20037;-75
2022/05/16 10:27:48;;;;;;;12.27;3.90;;;;;;;27.28;40.80;101388.16;4703675;30;20495;-77
2022/05/16 10:30:23;;;;;;;11.10;3.58;;;;;;;26.88;41.71;101380.66;4753281;30;20040;-76
2022/05/16 10:33:39;;;;;;;9.20;3.25;;;;;;;26.71;42.42;101391.69;4753377;30;20055;-78
2022/05/16 10:35:47;;;;;;;8.63;3.72;;;;;;;26.51;42.77;101405.56;4740781;30;20040;-73
2022/05/16 10:38:25;;;;;;;14.00;4.28;;;;;;;26.17;46.33;101411.47;4756058;29;20066;-75
2022/05/16 10:40:57;;;;;;;10.38;4.00;;;;;;;25.72;47.84;101404.53;4826794;29;20026;-75
2022/05/16 10:43:51;;;;;;;10.30;4.28;;;;;;;25.74;49.42;101427.16;4826656;29;20475;-74
2022/05/16 10:46:24;;;;;;;13.85;4.20;;;;;;;25.51;48.98;101431.66;4826919;29;20116;-75
2022/05/16 10:48:58;;;;;;;12.75;4.50;;;;;;;25.17;48.99;101430.31;4826738;29;20383;-75
2022/05/16 10:51:27;;;;;;;9.93;4.22;;;;;;;25.04;49.89;101464.41;4810478;29;20035;-75
2022/05/16 10:54:05;;;;;;;10.73;4.30;;;;;;;24.85;49.89;101449.81;4826551;29;20030;-75
2022/05/16 10:56:42;;;;;;;11.57;4.43;;;;;;;24.91;50.16;101469.44;4826460;29;20035;-74
2022/05/16 10:59:23;;;;;;;9.77;4.57;;;;;;;25.04;50.47;101469.72;4826499;29;20065;-75
2022/05/16 11:02:02;;;;;;;12.98;4.10;;;;;;;25.22;50.54;101466.78;4826702;29;20386;-73
2022/05/16 11:04:41;;;;;;;9.25;4.90;;;;;;;25.59;49.41;101470.44;4826037;29;20042;-75
2022/05/16 11:07:36;;;;;;;8.02;4.80;;;;;;;25.69;48.48;101471.00;4826403;29;20082;-75
2022/05/16 11:10:13;;;;;;;10.23;5.20;;;;;;;25.82;47.57;101459.81;4826494;29;20033;-75
2022/05/16 11:12:48;;;;;;;10.85;5.55;;;;;;;26.00;47.21;101482.28;4826275;29;20041;-76
2022/05/16 11:15:19;;;;;;;21.10;5.93;;;;;;;25.96;47.65;101486.31;4808095;29;20050;-75
2022/05/16 11:17:54;;;;;;;9.50;4.90;;;;;;;25.97;47.93;101493.25;4807915;29;20034;-76
2022/05/16 11:20:28;;;;;;;10.93;4.93;;;;;;;25.78;48.30;101491.13;4807995;29;20073;-75
2022/05/16 11:23:02;;;;;;;11.88;5.47;;;;;;;25.43;49.67;101496.00;4807910;29;20031;-74
2022/05/16 11:25:46;;;;;;;10.15;5.60;;;;;;;25.04;52.32;101495.31;4825280;29;20046;-74
2022/05/16 11:28:27;;;;;;;12.38;6.47;;;;;;;24.58;54.75;101501.31;4826733;29;20491;-75
2022/05/16 11:30:58;;;;;;;14.02;7.18;;;;;;;23.96;58.58;101502.94;4825160;29;20047;-75
2022/05/16 11:33:44;;;;;;;15.65;7.53;;;;;;;23.53;60.38;101501.47;4814076;29;20042;-76
2022/05/16 11:36:25;;;;;;;19.73;7.97;;;;;;;23.16;61.48;101506.22;4807947;29;20056;-73
2022/05/16 11:39:15;;;;;;;13.35;7.65;;;;;;;23.17;61.53;101513.13;4808080;29;20077;-74
2022/05/16 11:42:03;;;;;;;13.82;7.20;;;;;;;23.40;60.97;101507.22;4807718;29;20124;-73
2022/05/16 11:44:31;;;;;;;10.90;7.93;;;;;;;23.35;60.77;101515.63;4807712;29;20110;-73
2022/05/16 11:47:02;;;;;;;12.90;7.97;;;;;;;23.17;61.26;101505.22;4807489;29;20046;-73
2022/05/16 11:49:40;;;;;;;17.73;8.32;;;;;;;22.97;63.61;101511.78;4807695;29;20110;-74
2022/05/16 11:52:21;;;;;;;14.07;8.50;;;;;;;22.75;64.47;101523.69;4807495;29;20027;-78
2022/05/16 12:00:31;;;;;;;15.07;9.13;;;;;;;22.59;65.58;101503.38;4807715;29;20106;-77